sensor_id;sensor_type;location;lat;lon;timestamp;temperature;humidity
9723;DHT22;4900;49.306;8.500;2024-03-06T00:00:29;7.95;78.36
9723;DHT22;4900;49.306;8.500;2024-03-06T00:02:55;7.96;78.44
9723;DHT22;4900;49.306;8.500;2024-03-06T00:05:20;7.98;78.47
9723;DHT22;4900;49.306;8.500;2024-03-06T00:07:46;7.98;78.62
9723;DHT22;4900;49.306;8.500;2024-03-06T00:10:11;7.98;78.66
9723;DHT22;4900;49.306;8.500;2024-03-06T00:12:36;7.99;78.75
9723;DHT22;4900;49.306;8.500;2024-03-06T00:15:02;8.00;78.80
9723;DHT22;4900;49.306;8.500;2024-03-06T00:17:28;8.02;78.85
9723;DHT22;4900;49.306;8.500;2024-03-06T00:19:53;8.03;78.85
9723;DHT22;4900;49.306;8.500;2024-03-06T00:22:18;8.06;78.91
9723;DHT22;4900;49.306;8.500;2024-03-06T00:24:44;8.03;78.89
9723;DHT22;4900;49.306;8.500;2024-03-06T00:27:09;8.03;78.94
9723;DHT22;4900;49.306;8.500;2024-03-06T00:29:35;8.06;78.94
9723;DHT22;4900;49.306;8.500;2024-03-06T00:32:03;8.07;78.95
9723;DHT22;4900;49.306;8.500;2024-03-06T00:34:28;8.07;78.99
9723;DHT22;4900;49.306;8.500;2024-03-06T00:36:54;8.09;79.00
9723;DHT22;4900;49.306;8.500;2024-03-06T00:39:20;8.09;78.93
9723;DHT22;4900;49.306;8.500;2024-03-06T00:41:45;8.12;78.92
9723;DHT22;4900;49.306;8.500;2024-03-06T00:44:11;8.12;78.86
9723;DHT22;4900;49.306;8.500;2024-03-06T00:46:36;8.10;78.83
9723;DHT22;4900;49.306;8.500;2024-03-06T00:49:02;8.14;78.83
9723;DHT22;4900;49.306;8.500;2024-03-06T00:51:27;8.13;78.71
9723;DHT22;4900;49.306;8.500;2024-03-06T00:53:53;8.16;78.68
9723;DHT22;4900;49.306;8.500;2024-03-06T00:56:18;8.16;78.60
9723;DHT22;4900;49.306;8.500;2024-03-06T00:58:44;8.14;78.58
9723;DHT22;4900;49.306;8.500;2024-03-06T01:01:09;8.16;78.52
9723;DHT22;4900;49.306;8.500;2024-03-06T01:03:34;8.13;78.47
9723;DHT22;4900;49.306;8.500;2024-03-06T01:06:00;8.10;78.51
9723;DHT22;4900;49.306;8.500;2024-03-06T01:08:25;8.12;78.54
9723;DHT22;4900;49.306;8.500;2024-03-06T01:10:51;8.12;78.44
9723;DHT22;4900;49.306;8.500;2024-03-06T01:13:18;8.10;78.38
9723;DHT22;4900;49.306;8.500;2024-03-06T01:15:43;8.07;78.38
9723;DHT22;4900;49.306;8.500;2024-03-06T01:18:09;8.06;78.26
9723;DHT22;4900;49.306;8.500;2024-03-06T01:20:34;8.06;78.31
9723;DHT22;4900;49.306;8.500;2024-03-06T01:23:00;8.03;78.34
9723;DHT22;4900;49.306;8.500;2024-03-06T01:25:25;8.00;78.26
9723;DHT22;4900;49.306;8.500;2024-03-06T01:27:50;7.99;78.27
9723;DHT22;4900;49.306;8.500;2024-03-06T01:30:16;7.96;78.22
9723;DHT22;4900;49.306;8.500;2024-03-06T01:32:42;7.92;78.25
9723;DHT22;4900;49.306;8.500;2024-03-06T01:35:07;7.92;78.24
9723;DHT22;4900;49.306;8.500;2024-03-06T01:37:33;7.88;78.34
9723;DHT22;4900;49.306;8.500;2024-03-06T01:39:59;7.88;78.36
9723;DHT22;4900;49.306;8.500;2024-03-06T01:42:25;7.88;78.39
9723;DHT22;4900;49.306;8.500;2024-03-06T01:44:51;7.85;78.42
9723;DHT22;4900;49.306;8.500;2024-03-06T01:47:16;7.86;78.44
9723;DHT22;4900;49.306;8.500;2024-03-06T01:49:42;7.83;78.42
9723;DHT22;4900;49.306;8.500;2024-03-06T01:52:09;7.83;78.48
9723;DHT22;4900;49.306;8.500;2024-03-06T01:54:37;7.82;78.47
9723;DHT22;4900;49.306;8.500;2024-03-06T01:57:03;7.81;78.51
9723;DHT22;4900;49.306;8.500;2024-03-06T01:59:29;7.81;78.47
9723;DHT22;4900;49.306;8.500;2024-03-06T02:01:55;7.79;78.46
9723;DHT22;4900;49.306;8.500;2024-03-06T02:04:20;7.79;78.43
9723;DHT22;4900;49.306;8.500;2024-03-06T02:06:47;7.77;78.50
9723;DHT22;4900;49.306;8.500;2024-03-06T02:09:12;7.72;78.49
9723;DHT22;4900;49.306;8.500;2024-03-06T02:11:39;7.74;78.56
9723;DHT22;4900;49.306;8.500;2024-03-06T02:14:05;7.72;78.56
9723;DHT22;4900;49.306;8.500;2024-03-06T02:16:37;7.72;78.63
9723;DHT22;4900;49.306;8.500;2024-03-06T02:19:04;7.68;78.67
9723;DHT22;4900;49.306;8.500;2024-03-06T02:21:30;7.71;78.68
9723;DHT22;4900;49.306;8.500;2024-03-06T02:23:55;7.69;78.72
9723;DHT22;4900;49.306;8.500;2024-03-06T02:26:21;7.71;78.68
9723;DHT22;4900;49.306;8.500;2024-03-06T02:28:52;7.71;78.68
9723;DHT22;4900;49.306;8.500;2024-03-06T02:31:18;7.69;78.64
9723;DHT22;4900;49.306;8.500;2024-03-06T02:33:44;7.71;78.60
9723;DHT22;4900;49.306;8.500;2024-03-06T02:36:10;7.69;78.60
9723;DHT22;4900;49.306;8.500;2024-03-06T02:38:36;7.71;78.61
9723;DHT22;4900;49.306;8.500;2024-03-06T02:41:02;7.69;78.64
9723;DHT22;4900;49.306;8.500;2024-03-06T02:43:27;7.68;78.70
9723;DHT22;4900;49.306;8.500;2024-03-06T02:45:54;7.65;78.66
9723;DHT22;4900;49.306;8.500;2024-03-06T02:48:19;7.66;78.68
9723;DHT22;4900;49.306;8.500;2024-03-06T02:50:45;7.63;78.58
9723;DHT22;4900;49.306;8.500;2024-03-06T02:53:10;7.62;78.57
9723;DHT22;4900;49.306;8.500;2024-03-06T02:55:35;7.58;78.57
9723;DHT22;4900;49.306;8.500;2024-03-06T02:58:02;7.56;78.63
9723;DHT22;4900;49.306;8.500;2024-03-06T03:00:28;7.54;78.62
9723;DHT22;4900;49.306;8.500;2024-03-06T03:02:53;7.54;78.55
9723;DHT22;4900;49.306;8.500;2024-03-06T03:05:19;7.51;78.49
9723;DHT22;4900;49.306;8.500;2024-03-06T03:07:44;7.50;78.48
9723;DHT22;4900;49.306;8.500;2024-03-06T03:10:09;7.45;78.42
9723;DHT22;4900;49.306;8.500;2024-03-06T03:12:37;7.44;78.40
9723;DHT22;4900;49.306;8.500;2024-03-06T03:15:04;7.38;78.34
9723;DHT22;4900;49.306;8.500;2024-03-06T03:17:29;7.35;78.38
9723;DHT22;4900;49.306;8.500;2024-03-06T03:19:55;7.31;78.30
9723;DHT22;4900;49.306;8.500;2024-03-06T03:22:20;7.30;78.33
9723;DHT22;4900;49.306;8.500;2024-03-06T03:24:46;7.24;78.28
9723;DHT22;4900;49.306;8.500;2024-03-06T03:27:12;7.19;78.16
9723;DHT22;4900;49.306;8.500;2024-03-06T03:29:38;7.13;78.06
9723;DHT22;4900;49.306;8.500;2024-03-06T03:32:03;7.09;78.04
9723;DHT22;4900;49.306;8.500;2024-03-06T03:34:29;7.05;78.02
9723;DHT22;4900;49.306;8.500;2024-03-06T03:36:55;7.00;78.00
9723;DHT22;4900;49.306;8.500;2024-03-06T03:39:22;6.98;78.06
9723;DHT22;4900;49.306;8.500;2024-03-06T03:41:49;6.98;78.19
9723;DHT22;4900;49.306;8.500;2024-03-06T03:44:17;6.93;78.37
9723;DHT22;4900;49.306;8.500;2024-03-06T03:46:44;6.92;78.52
9723;DHT22;4900;49.306;8.500;2024-03-06T03:49:09;6.92;78.62
9723;DHT22;4900;49.306;8.500;2024-03-06T03:51:36;6.95;78.78
9723;DHT22;4900;49.306;8.500;2024-03-06T03:54:02;6.95;78.85
9723;DHT22;4900;49.306;8.500;2024-03-06T03:56:27;6.96;78.93
9723;DHT22;4900;49.306;8.500;2024-03-06T03:58:53;6.98;79.07
9723;DHT22;4900;49.306;8.500;2024-03-06T04:01:18;7.02;79.23
9723;DHT22;4900;49.306;8.500;2024-03-06T04:03:43;6.99;79.28
9723;DHT22;4900;49.306;8.500;2024-03-06T04:06:10;7.00;79.35
9723;DHT22;4900;49.306;8.500;2024-03-06T04:08:36;7.03;79.47
9723;DHT22;4900;49.306;8.500;2024-03-06T04:11:03;7.06;79.47
9723;DHT22;4900;49.306;8.500;2024-03-06T04:13:29;7.07;79.49
9723;DHT22;4900;49.306;8.500;2024-03-06T04:15:54;7.09;79.46
9723;DHT22;4900;49.306;8.500;2024-03-06T04:18:21;7.07;79.52
9723;DHT22;4900;49.306;8.500;2024-03-06T04:20:46;7.13;79.49
9723;DHT22;4900;49.306;8.500;2024-03-06T04:23:12;7.12;79.45
9723;DHT22;4900;49.306;8.500;2024-03-06T04:25:37;7.13;79.43
9723;DHT22;4900;49.306;8.500;2024-03-06T04:28:05;7.12;79.42
9723;DHT22;4900;49.306;8.500;2024-03-06T04:30:33;7.12;79.41
9723;DHT22;4900;49.306;8.500;2024-03-06T04:32:58;7.12;79.36
9723;DHT22;4900;49.306;8.500;2024-03-06T04:35:24;7.13;79.38
9723;DHT22;4900;49.306;8.500;2024-03-06T04:37:49;7.13;79.30
9723;DHT22;4900;49.306;8.500;2024-03-06T04:40:15;7.09;79.31
9723;DHT22;4900;49.306;8.500;2024-03-06T04:42:48;7.09;79.34
9723;DHT22;4900;49.306;8.500;2024-03-06T04:45:17;7.09;79.37
9723;DHT22;4900;49.306;8.500;2024-03-06T04:47:43;7.09;79.35
9723;DHT22;4900;49.306;8.500;2024-03-06T04:50:12;7.07;79.52
9723;DHT22;4900;49.306;8.500;2024-03-06T04:52:39;7.06;79.49
9723;DHT22;4900;49.306;8.500;2024-03-06T04:55:06;7.06;79.64
9723;DHT22;4900;49.306;8.500;2024-03-06T04:57:31;7.03;79.76
9723;DHT22;4900;49.306;8.500;2024-03-06T04:59:57;7.07;79.79
9723;DHT22;4900;49.306;8.500;2024-03-06T05:02:24;7.09;79.93
9723;DHT22;4900;49.306;8.500;2024-03-06T05:04:50;7.10;79.94
9723;DHT22;4900;49.306;8.500;2024-03-06T05:07:16;7.10;79.95
9723;DHT22;4900;49.306;8.500;2024-03-06T05:09:41;7.15;79.89
9723;DHT22;4900;49.306;8.500;2024-03-06T05:12:07;7.12;79.87
9723;DHT22;4900;49.306;8.500;2024-03-06T05:14:33;7.13;79.83
9723;DHT22;4900;49.306;8.500;2024-03-06T05:16:59;7.13;79.79
9723;DHT22;4900;49.306;8.500;2024-03-06T05:19:24;7.10;79.83
9723;DHT22;4900;49.306;8.500;2024-03-06T05:21:59;7.13;79.80
9723;DHT22;4900;49.306;8.500;2024-03-06T05:24:25;7.13;79.81
9723;DHT22;4900;49.306;8.500;2024-03-06T05:27:00;7.09;79.81
9723;DHT22;4900;49.306;8.500;2024-03-06T05:29:26;7.09;79.70
9723;DHT22;4900;49.306;8.500;2024-03-06T05:31:51;7.09;79.66
9723;DHT22;4900;49.306;8.500;2024-03-06T05:34:17;7.10;79.72
9723;DHT22;4900;49.306;8.500;2024-03-06T05:36:43;7.07;79.80
9723;DHT22;4900;49.306;8.500;2024-03-06T05:39:08;7.10;79.79
9723;DHT22;4900;49.306;8.500;2024-03-06T05:41:38;7.09;79.85
9723;DHT22;4900;49.306;8.500;2024-03-06T05:44:04;7.13;79.91
9723;DHT22;4900;49.306;8.500;2024-03-06T05:46:30;7.12;80.04
9723;DHT22;4900;49.306;8.500;2024-03-06T05:48:55;7.17;80.04
9723;DHT22;4900;49.306;8.500;2024-03-06T05:51:21;7.16;80.04
9723;DHT22;4900;49.306;8.500;2024-03-06T05:53:46;7.17;80.13
9723;DHT22;4900;49.306;8.500;2024-03-06T05:56:12;7.17;80.17
9723;DHT22;4900;49.306;8.500;2024-03-06T05:58:37;7.22;80.25
9723;DHT22;4900;49.306;8.500;2024-03-06T06:01:03;7.24;80.29
9723;DHT22;4900;49.306;8.500;2024-03-06T06:03:29;7.26;80.36
9723;DHT22;4900;49.306;8.500;2024-03-06T06:05:55;7.27;80.36
9723;DHT22;4900;49.306;8.500;2024-03-06T06:08:24;7.27;80.45
9723;DHT22;4900;49.306;8.500;2024-03-06T06:10:52;7.31;80.48
9723;DHT22;4900;49.306;8.500;2024-03-06T06:13:18;7.34;80.49
9723;DHT22;4900;49.306;8.500;2024-03-06T06:15:44;7.34;80.50
9723;DHT22;4900;49.306;8.500;2024-03-06T06:18:09;7.38;80.57
9723;DHT22;4900;49.306;8.500;2024-03-06T06:20:36;7.40;80.53
9723;DHT22;4900;49.306;8.500;2024-03-06T06:23:01;7.44;80.56
9723;DHT22;4900;49.306;8.500;2024-03-06T06:25:27;7.47;80.65
9723;DHT22;4900;49.306;8.500;2024-03-06T06:27:53;7.48;80.58
9723;DHT22;4900;49.306;8.500;2024-03-06T06:30:19;7.48;80.61
9723;DHT22;4900;49.306;8.500;2024-03-06T06:32:45;7.52;80.75
9723;DHT22;4900;49.306;8.500;2024-03-06T06:35:11;7.54;80.73
9723;DHT22;4900;49.306;8.500;2024-03-06T06:37:38;7.58;80.66
9723;DHT22;4900;49.306;8.500;2024-03-06T06:40:07;7.61;80.67
9723;DHT22;4900;49.306;8.500;2024-03-06T06:42:34;7.66;80.56
9723;DHT22;4900;49.306;8.500;2024-03-06T06:45:00;7.72;80.50
9723;DHT22;4900;49.306;8.500;2024-03-06T06:47:26;7.79;80.40
9723;DHT22;4900;49.306;8.500;2024-03-06T06:49:52;7.81;80.31
9723;DHT22;4900;49.306;8.500;2024-03-06T06:52:17;7.88;80.22
9723;DHT22;4900;49.306;8.500;2024-03-06T06:54:43;7.96;80.11
9723;DHT22;4900;49.306;8.500;2024-03-06T06:57:08;8.06;80.07
9723;DHT22;4900;49.306;8.500;2024-03-06T06:59:34;8.10;79.98
9723;DHT22;4900;49.306;8.500;2024-03-06T07:02:00;8.20;79.93
9723;DHT22;4900;49.306;8.500;2024-03-06T07:04:26;8.30;79.78
9723;DHT22;4900;49.306;8.500;2024-03-06T07:06:51;8.40;79.60
9723;DHT22;4900;49.306;8.500;2024-03-06T07:09:17;8.44;79.73
9723;DHT22;4900;49.306;8.500;2024-03-06T07:11:44;8.61;79.66
9723;DHT22;4900;49.306;8.500;2024-03-06T07:14:12;8.76;79.40
9723;DHT22;4900;49.306;8.500;2024-03-06T07:16:44;8.89;79.34
9723;DHT22;4900;49.306;8.500;2024-03-06T07:19:09;9.04;79.07
9723;DHT22;4900;49.306;8.500;2024-03-06T07:21:36;9.16;78.86
9723;DHT22;4900;49.306;8.500;2024-03-06T07:24:03;9.25;78.71
9723;DHT22;4900;49.306;8.500;2024-03-06T07:26:31;9.30;78.39
9723;DHT22;4900;49.306;8.500;2024-03-06T07:28:57;9.36;78.14
9723;DHT22;4900;49.306;8.500;2024-03-06T07:31:23;9.51;77.92
9723;DHT22;4900;49.306;8.500;2024-03-06T07:33:50;9.58;77.79
9723;DHT22;4900;49.306;8.500;2024-03-06T07:36:15;9.66;77.49
9723;DHT22;4900;49.306;8.500;2024-03-06T07:38:42;9.74;77.25
9723;DHT22;4900;49.306;8.500;2024-03-06T07:41:08;9.82;76.95
9723;DHT22;4900;49.306;8.500;2024-03-06T07:43:33;9.91;76.82
9723;DHT22;4900;49.306;8.500;2024-03-06T07:45:59;10.06;76.48
9723;DHT22;4900;49.306;8.500;2024-03-06T07:48:24;10.18;76.16
9723;DHT22;4900;49.306;8.500;2024-03-06T07:50:50;10.36;75.86
9723;DHT22;4900;49.306;8.500;2024-03-06T07:53:15;10.50;75.34
9723;DHT22;4900;49.306;8.500;2024-03-06T07:55:41;10.58;74.66
9723;DHT22;4900;49.306;8.500;2024-03-06T07:58:07;10.73;74.21
9723;DHT22;4900;49.306;8.500;2024-03-06T08:00:35;10.91;73.99
9723;DHT22;4900;49.306;8.500;2024-03-06T08:03:01;10.91;72.96
9723;DHT22;4900;49.306;8.500;2024-03-06T08:05:28;11.01;73.24
9723;DHT22;4900;49.306;8.500;2024-03-06T08:07:53;11.04;73.21
9723;DHT22;4900;49.306;8.500;2024-03-06T08:10:19;11.07;72.97
9723;DHT22;4900;49.306;8.500;2024-03-06T08:12:45;11.04;72.53
9723;DHT22;4900;49.306;8.500;2024-03-06T08:15:13;11.08;72.57
9723;DHT22;4900;49.306;8.500;2024-03-06T08:17:40;11.07;72.28
9723;DHT22;4900;49.306;8.500;2024-03-06T08:20:08;11.11;72.27
9723;DHT22;4900;49.306;8.500;2024-03-06T08:22:35;11.12;72.17
9723;DHT22;4900;49.306;8.500;2024-03-06T08:25:07;11.18;71.99
9723;DHT22;4900;49.306;8.500;2024-03-06T08:27:37;11.38;71.71
9723;DHT22;4900;49.306;8.500;2024-03-06T08:30:03;11.48;71.64
9723;DHT22;4900;49.306;8.500;2024-03-06T08:32:31;11.58;71.02
9723;DHT22;4900;49.306;8.500;2024-03-06T08:35:08;11.74;70.96
9723;DHT22;4900;49.306;8.500;2024-03-06T08:37:39;11.84;70.58
9723;DHT22;4900;49.306;8.500;2024-03-06T08:40:06;11.97;70.02
9723;DHT22;4900;49.306;8.500;2024-03-06T08:42:33;12.01;70.06
9723;DHT22;4900;49.306;8.500;2024-03-06T08:44:58;12.14;69.95
9723;DHT22;4900;49.306;8.500;2024-03-06T08:47:24;12.28;69.53
9723;DHT22;4900;49.306;8.500;2024-03-06T08:49:49;12.45;69.48
9723;DHT22;4900;49.306;8.500;2024-03-06T08:52:15;12.60;69.39
9723;DHT22;4900;49.306;8.500;2024-03-06T08:54:41;12.67;68.78
9723;DHT22;4900;49.306;8.500;2024-03-06T08:57:10;12.77;68.13
9723;DHT22;4900;49.306;8.500;2024-03-06T08:59:36;12.83;67.61
9723;DHT22;4900;49.306;8.500;2024-03-06T09:02:15;12.87;67.18
9723;DHT22;4900;49.306;8.500;2024-03-06T09:04:42;13.07;67.32
9723;DHT22;4900;49.306;8.500;2024-03-06T09:07:08;13.25;67.06
9723;DHT22;4900;49.306;8.500;2024-03-06T09:09:35;13.29;66.35
9723;DHT22;4900;49.306;8.500;2024-03-06T09:12:02;13.50;66.49
9723;DHT22;4900;49.306;8.500;2024-03-06T09:14:30;13.33;65.50
9723;DHT22;4900;49.306;8.500;2024-03-06T09:16:55;13.32;65.48
9723;DHT22;4900;49.306;8.500;2024-03-06T09:19:21;13.42;65.35
9723;DHT22;4900;49.306;8.500;2024-03-06T09:21:47;13.42;65.45
9723;DHT22;4900;49.306;8.500;2024-03-06T09:24:13;13.52;65.55
9723;DHT22;4900;49.306;8.500;2024-03-06T09:26:39;13.73;65.79
9723;DHT22;4900;49.306;8.500;2024-03-06T09:29:04;13.77;65.04
9723;DHT22;4900;49.306;8.500;2024-03-06T09:31:30;13.88;64.41
9723;DHT22;4900;49.306;8.500;2024-03-06T09:33:56;13.95;63.98
9723;DHT22;4900;49.306;8.500;2024-03-06T09:36:23;14.01;63.83
9723;DHT22;4900;49.306;8.500;2024-03-06T09:38:48;14.00;63.29
9723;DHT22;4900;49.306;8.500;2024-03-06T09:41:14;13.98;63.56
9723;DHT22;4900;49.306;8.500;2024-03-06T09:43:39;13.98;63.26
9723;DHT22;4900;49.306;8.500;2024-03-06T09:46:06;14.05;63.15
9723;DHT22;4900;49.306;8.500;2024-03-06T09:48:33;14.11;62.66
9723;DHT22;4900;49.306;8.500;2024-03-06T09:51:01;14.33;62.72
9723;DHT22;4900;49.306;8.500;2024-03-06T09:53:30;14.49;62.12
9723;DHT22;4900;49.306;8.500;2024-03-06T09:55:56;14.71;62.49
9723;DHT22;4900;49.306;8.500;2024-03-06T09:58:23;14.83;61.79
9723;DHT22;4900;49.306;8.500;2024-03-06T10:00:53;14.83;61.89
9723;DHT22;4900;49.306;8.500;2024-03-06T10:03:19;14.64;61.67
9723;DHT22;4900;49.306;8.500;2024-03-06T10:05:46;14.73;61.99
9723;DHT22;4900;49.306;8.500;2024-03-06T10:08:12;14.80;61.77
9723;DHT22;4900;49.306;8.500;2024-03-06T10:10:37;14.83;61.37
9723;DHT22;4900;49.306;8.500;2024-03-06T10:13:02;15.01;62.03
9723;DHT22;4900;49.306;8.500;2024-03-06T10:15:28;14.94;60.19
9723;DHT22;4900;49.306;8.500;2024-03-06T10:20:36;15.14;60.69
9723;DHT22;4900;49.306;8.500;2024-03-06T10:23:02;15.28;61.17
9723;DHT22;4900;49.306;8.500;2024-03-06T10:25:27;15.33;60.91
9723;DHT22;4900;49.306;8.500;2024-03-06T10:28:10;15.29;59.99
9723;DHT22;4900;49.306;8.500;2024-03-06T10:30:40;15.33;60.16
9723;DHT22;4900;49.306;8.500;2024-03-06T10:33:10;15.36;60.07
9723;DHT22;4900;49.306;8.500;2024-03-06T10:35:37;15.36;59.66
9723;DHT22;4900;49.306;8.500;2024-03-06T10:38:04;15.43;59.75
9723;DHT22;4900;49.306;8.500;2024-03-06T10:40:32;15.61;60.17
9723;DHT22;4900;49.306;8.500;2024-03-06T10:43:02;15.47;59.15
9723;DHT22;4900;49.306;8.500;2024-03-06T10:45:48;15.56;59.35
9723;DHT22;4900;49.306;8.500;2024-03-06T10:48:16;15.57;59.50
9723;DHT22;4900;49.306;8.500;2024-03-06T10:50:43;15.66;59.18
9723;DHT22;4900;49.306;8.500;2024-03-06T10:53:14;15.81;59.03
9723;DHT22;4900;49.306;8.500;2024-03-06T10:55:40;15.99;59.30
9723;DHT22;4900;49.306;8.500;2024-03-06T10:58:07;15.91;58.61
9723;DHT22;4900;49.306;8.500;2024-03-06T11:00:45;15.85;58.87
9723;DHT22;4900;49.306;8.500;2024-03-06T11:03:15;15.99;58.85
9723;DHT22;4900;49.306;8.500;2024-03-06T11:05:42;15.91;58.89
9723;DHT22;4900;49.306;8.500;2024-03-06T11:08:12;16.06;58.43
9723;DHT22;4900;49.306;8.500;2024-03-06T11:10:40;16.06;58.34
9723;DHT22;4900;49.306;8.500;2024-03-06T11:13:21;16.15;57.98
9723;DHT22;4900;49.306;8.500;2024-03-06T11:15:53;16.04;57.74
9723;DHT22;4900;49.306;8.500;2024-03-06T11:24:19;16.21;58.10
9723;DHT22;4900;49.306;8.500;2024-03-06T11:27:01;16.40;57.99
9723;DHT22;4900;49.306;8.500;2024-03-06T11:32:12;16.50;57.68
9723;DHT22;4900;49.306;8.500;2024-03-06T11:34:38;16.69;57.50
9723;DHT22;4900;49.306;8.500;2024-03-06T11:37:05;17.02;56.93
9723;DHT22;4900;49.306;8.500;2024-03-06T11:39:37;17.22;56.64
9723;DHT22;4900;49.306;8.500;2024-03-06T11:42:04;17.46;56.07
9723;DHT22;4900;49.306;8.500;2024-03-06T11:44:35;17.51;55.53
9723;DHT22;4900;49.306;8.500;2024-03-06T11:47:05;17.51;53.74
9723;DHT22;4900;49.306;8.500;2024-03-06T11:49:34;17.54;54.43
9723;DHT22;4900;49.306;8.500;2024-03-06T11:52:01;17.44;54.00
9723;DHT22;4900;49.306;8.500;2024-03-06T11:54:34;17.40;55.00
9723;DHT22;4900;49.306;8.500;2024-03-06T11:57:02;17.39;54.56
9723;DHT22;4900;49.306;8.500;2024-03-06T11:59:33;17.53;55.29
9723;DHT22;4900;49.306;8.500;2024-03-06T12:02:01;17.60;54.54
9723;DHT22;4900;49.306;8.500;2024-03-06T12:04:27;17.53;53.98
9723;DHT22;4900;49.306;8.500;2024-03-06T12:06:56;17.39;53.82
9723;DHT22;4900;49.306;8.500;2024-03-06T12:09:21;17.51;54.17
9723;DHT22;4900;49.306;8.500;2024-03-06T12:11:47;17.79;54.23
9723;DHT22;4900;49.306;8.500;2024-03-06T12:14:17;17.91;53.25
9723;DHT22;4900;49.306;8.500;2024-03-06T12:16:57;18.16;54.09
9723;DHT22;4900;49.306;8.500;2024-03-06T12:19:28;18.20;52.95
9723;DHT22;4900;49.306;8.500;2024-03-06T12:21:55;18.43;52.59
9723;DHT22;4900;49.306;8.500;2024-03-06T12:24:21;18.34;52.42
9723;DHT22;4900;49.306;8.500;2024-03-06T12:27:04;18.31;53.05
9723;DHT22;4900;49.306;8.500;2024-03-06T12:29:31;18.09;52.03
9723;DHT22;4900;49.306;8.500;2024-03-06T12:31:58;18.09;53.04
9723;DHT22;4900;49.306;8.500;2024-03-06T12:34:23;18.05;52.98
9723;DHT22;4900;49.306;8.500;2024-03-06T12:36:49;17.94;53.00
9723;DHT22;4900;49.306;8.500;2024-03-06T12:39:17;17.64;53.19
9723;DHT22;4900;49.306;8.500;2024-03-06T12:41:51;17.41;53.55
9723;DHT22;4900;49.306;8.500;2024-03-06T12:44:18;17.09;53.97
9723;DHT22;4900;49.306;8.500;2024-03-06T12:46:44;16.95;53.96
9723;DHT22;4900;49.306;8.500;2024-03-06T12:49:10;16.98;54.05
9723;DHT22;4900;49.306;8.500;2024-03-06T12:52:12;16.78;54.45
9723;DHT22;4900;49.306;8.500;2024-03-06T12:54:57;16.56;54.57
9723;DHT22;4900;49.306;8.500;2024-03-06T12:57:22;16.36;55.00
9723;DHT22;4900;49.306;8.500;2024-03-06T12:59:47;16.13;55.36
9723;DHT22;4900;49.306;8.500;2024-03-06T13:02:13;15.91;56.13
9723;DHT22;4900;49.306;8.500;2024-03-06T13:04:39;15.77;56.88
9723;DHT22;4900;49.306;8.500;2024-03-06T13:07:04;15.43;57.72
9723;DHT22;4900;49.306;8.500;2024-03-06T13:09:30;15.25;58.36
9723;DHT22;4900;49.306;8.500;2024-03-06T13:11:56;14.94;59.41
9723;DHT22;4900;49.306;8.500;2024-03-06T13:14:21;14.74;60.14
9723;DHT22;4900;49.306;8.500;2024-03-06T13:16:47;14.70;60.31
9723;DHT22;4900;49.306;8.500;2024-03-06T13:19:12;14.56;60.65
9723;DHT22;4900;49.306;8.500;2024-03-06T13:21:37;14.48;61.05
9723;DHT22;4900;49.306;8.500;2024-03-06T13:24:03;14.36;61.70
9723;DHT22;4900;49.306;8.500;2024-03-06T13:26:28;14.32;62.01
9723;DHT22;4900;49.306;8.500;2024-03-06T13:28:54;14.26;62.37
9723;DHT22;4900;49.306;8.500;2024-03-06T13:31:19;14.28;62.54
9723;DHT22;4900;49.306;8.500;2024-03-06T13:33:45;14.26;62.62
9723;DHT22;4900;49.306;8.500;2024-03-06T13:36:10;14.32;62.77
9723;DHT22;4900;49.306;8.500;2024-03-06T13:38:36;14.28;62.97
9723;DHT22;4900;49.306;8.500;2024-03-06T13:41:02;14.21;63.32
9723;DHT22;4900;49.306;8.500;2024-03-06T13:43:28;14.16;63.25
9723;DHT22;4900;49.306;8.500;2024-03-06T13:45:54;14.12;63.33
9723;DHT22;4900;49.306;8.500;2024-03-06T13:48:20;14.04;63.54
9723;DHT22;4900;49.306;8.500;2024-03-06T13:50:46;13.97;63.91
9723;DHT22;4900;49.306;8.500;2024-03-06T13:53:12;13.88;64.20
9723;DHT22;4900;49.306;8.500;2024-03-06T13:55:37;13.80;64.33
9723;DHT22;4900;49.306;8.500;2024-03-06T13:58:03;13.74;64.55
9723;DHT22;4900;49.306;8.500;2024-03-06T14:00:29;13.66;64.63
9723;DHT22;4900;49.306;8.500;2024-03-06T14:02:55;13.57;64.86
9723;DHT22;4900;49.306;8.500;2024-03-06T14:05:20;13.60;64.90
9723;DHT22;4900;49.306;8.500;2024-03-06T14:07:53;13.56;65.11
9723;DHT22;4900;49.306;8.500;2024-03-06T14:10:20;13.52;65.18
9723;DHT22;4900;49.306;8.500;2024-03-06T14:12:47;13.49;65.38
9723;DHT22;4900;49.306;8.500;2024-03-06T14:15:13;13.40;65.72
9723;DHT22;4900;49.306;8.500;2024-03-06T14:17:40;13.40;65.64
9723;DHT22;4900;49.306;8.500;2024-03-06T14:20:06;13.38;65.61
9723;DHT22;4900;49.306;8.500;2024-03-06T14:22:31;13.40;65.75
9723;DHT22;4900;49.306;8.500;2024-03-06T14:24:57;13.40;65.96
9723;DHT22;4900;49.306;8.500;2024-03-06T14:27:23;13.39;65.90
9723;DHT22;4900;49.306;8.500;2024-03-06T14:29:48;13.42;66.10
9723;DHT22;4900;49.306;8.500;2024-03-06T14:32:16;13.42;66.13
9723;DHT22;4900;49.306;8.500;2024-03-06T14:34:43;13.43;66.05
9723;DHT22;4900;49.306;8.500;2024-03-06T14:37:09;13.43;66.05
9723;DHT22;4900;49.306;8.500;2024-03-06T14:39:35;13.46;66.14
9723;DHT22;4900;49.306;8.500;2024-03-06T14:42:00;13.42;65.98
9723;DHT22;4900;49.306;8.500;2024-03-06T14:44:26;13.36;65.90
9723;DHT22;4900;49.306;8.500;2024-03-06T14:46:51;13.32;65.82
9723;DHT22;4900;49.306;8.500;2024-03-06T14:49:17;13.29;65.87
9723;DHT22;4900;49.306;8.500;2024-03-06T14:51:43;13.25;66.14
9723;DHT22;4900;49.306;8.500;2024-03-06T14:54:08;13.21;66.31
9723;DHT22;4900;49.306;8.500;2024-03-06T14:56:34;13.22;66.38
9723;DHT22;4900;49.306;8.500;2024-03-06T14:59:00;13.18;66.53
9723;DHT22;4900;49.306;8.500;2024-03-06T15:01:26;13.16;66.67
9723;DHT22;4900;49.306;8.500;2024-03-06T15:03:53;13.10;66.87
9723;DHT22;4900;49.306;8.500;2024-03-06T15:06:19;13.01;67.16
9723;DHT22;4900;49.306;8.500;2024-03-06T15:08:44;12.97;67.11
9723;DHT22;4900;49.306;8.500;2024-03-06T15:11:10;12.97;67.35
9723;DHT22;4900;49.306;8.500;2024-03-06T15:13:36;12.97;67.32
9723;DHT22;4900;49.306;8.500;2024-03-06T15:16:01;12.90;67.54
9723;DHT22;4900;49.306;8.500;2024-03-06T15:18:29;12.88;67.64
9723;DHT22;4900;49.306;8.500;2024-03-06T15:20:55;12.79;67.90
9723;DHT22;4900;49.306;8.500;2024-03-06T15:23:21;12.77;67.93
9723;DHT22;4900;49.306;8.500;2024-03-06T15:25:46;12.71;68.25
9723;DHT22;4900;49.306;8.500;2024-03-06T15:28:12;12.66;68.36
9723;DHT22;4900;49.306;8.500;2024-03-06T15:30:37;12.63;68.41
9723;DHT22;4900;49.306;8.500;2024-03-06T15:33:06;12.55;68.50
9723;DHT22;4900;49.306;8.500;2024-03-06T15:35:32;12.53;68.75
9723;DHT22;4900;49.306;8.500;2024-03-06T15:37:58;12.48;68.86
9723;DHT22;4900;49.306;8.500;2024-03-06T15:40:24;12.46;68.94
9723;DHT22;4900;49.306;8.500;2024-03-06T15:42:50;12.45;69.22
9723;DHT22;4900;49.306;8.500;2024-03-06T15:45:16;12.43;69.02
9723;DHT22;4900;49.306;8.500;2024-03-06T15:47:41;12.41;69.31
9723;DHT22;4900;49.306;8.500;2024-03-06T15:50:09;12.39;69.50
9723;DHT22;4900;49.306;8.500;2024-03-06T15:52:37;12.38;69.69
9723;DHT22;4900;49.306;8.500;2024-03-06T15:55:06;12.39;69.67
9723;DHT22;4900;49.306;8.500;2024-03-06T15:57:32;12.39;69.57
9723;DHT22;4900;49.306;8.500;2024-03-06T15:59:57;12.41;69.55
9723;DHT22;4900;49.306;8.500;2024-03-06T16:02:23;12.41;69.70
9723;DHT22;4900;49.306;8.500;2024-03-06T16:04:51;12.46;69.79
9723;DHT22;4900;49.306;8.500;2024-03-06T16:07:17;12.48;69.76
9723;DHT22;4900;49.306;8.500;2024-03-06T16:09:43;12.48;69.70
9723;DHT22;4900;49.306;8.500;2024-03-06T16:12:09;12.48;69.70
9723;DHT22;4900;49.306;8.500;2024-03-06T16:14:34;12.50;69.80
9723;DHT22;4900;49.306;8.500;2024-03-06T16:17:00;12.48;69.76